Time;durP1;ratioP1;P1;durP2;ratioP2;P2;SDS_P1;SDS_P2;PMS_P1;PMS_P2;Temp;Humidity;BMP_temperature;BMP_pressure;BME280_temperature;BME280_humidity;BME280_pressure;Samples;Min_cycle;Max_cycle;Signal;HPM_P1;HPM_P2
2022/07/21 06:48:57;;;;;;;;;;;13.30;96.80;;;;;;5091957;27;19930;-61
2022/07/21 06:51:23;;;;;;;;;;;13.30;96.80;;;;;;5084479;28;20351;-64
2022/07/21 06:53:50;;;;;;;;;;;13.30;96.90;;;;;;5087229;28;20023;-63
2022/07/21 06:56:20;;;;;;;;;;;13.30;96.90;;;;;;5089832;28;19919;-64
2022/07/21 06:58:46;;;;;;;;;;;13.30;96.90;;;;;;5082914;28;19955;-62
2022/07/21 07:01:16;;;;;;;;;;;13.30;97.00;;;;;;5090821;28;19922;-63
2022/07/21 07:03:43;;;;;;;;;;;13.30;96.90;;;;;;5087088;28;20007;-64
2022/07/21 07:06:10;;;;;;;;;;;13.30;96.90;;;;;;5094713;28;20351;-64
2022/07/21 07:08:38;;;;;;;;;;;13.20;96.40;;;;;;5090526;28;19916;-64
2022/07/21 07:11:05;;;;;;;;;;;13.20;96.10;;;;;;5092627;28;20357;-63
2022/07/21 07:13:31;;;;;;;;;;;13.20;95.30;;;;;;5078287;28;19916;-63
2022/07/21 07:15:58;;;;;;;;;;;13.30;94.90;;;;;;5086290;28;20035;-64
2022/07/21 07:18:25;;;;;;;;;;;13.30;95.00;;;;;;5094343;28;19916;-64
2022/07/21 07:20:51;;;;;;;;;;;13.30;94.90;;;;;;5091895;28;20308;-64
2022/07/21 07:23:18;;;;;;;;;;;13.40;94.50;;;;;;5095779;28;20010;-64
2022/07/21 07:25:45;;;;;;;;;;;13.50;94.00;;;;;;5089803;28;19924;-63
2022/07/21 07:28:11;;;;;;;;;;;13.50;93.20;;;;;;5100018;28;19916;-64
2022/07/21 07:30:38;;;;;;;;;;;13.60;93.20;;;;;;5092735;28;20370;-64
2022/07/21 07:33:05;;;;;;;;;;;13.60;91.70;;;;;;5098734;28;19931;-65
2022/07/21 07:35:32;;;;;;;;;;;13.70;91.90;;;;;;5093577;28;19957;-62
2022/07/21 07:37:58;;;;;;;;;;;13.70;92.50;;;;;;5086657;28;19912;-64
2022/07/21 07:40:25;;;;;;;;;;;13.70;92.20;;;;;;5096783;28;20278;-63
2022/07/21 07:42:51;;;;;;;;;;;13.70;92.00;;;;;;5088664;28;19920;-65
2022/07/21 07:45:18;;;;;;;;;;;13.70;92.00;;;;;;5088643;28;19923;-65
2022/07/21 07:47:45;;;;;;;;;;;13.70;91.60;;;;;;5085793;28;20391;-64
2022/07/21 07:50:12;;;;;;;;;;;13.80;90.90;;;;;;5099581;28;19926;-65
2022/07/21 07:52:39;;;;;;;;;;;14.00;90.30;;;;;;5096801;28;19969;-66
2022/07/21 07:55:07;;;;;;;;;;;14.10;89.50;;;;;;5107620;28;19919;-66
2022/07/21 07:57:34;;;;;;;;;;;14.10;89.80;;;;;;5079762;28;19970;-65
2022/07/21 08:00:02;;;;;;;;;;;14.00;89.40;;;;;;5095090;28;19938;-67
2022/07/21 08:02:28;;;;;;;;;;;14.20;88.60;;;;;;5109724;28;19912;-65
2022/07/21 08:04:55;;;;;;;;;;;14.20;89.30;;;;;;5106621;28;19923;-66
2022/07/21 08:07:21;;;;;;;;;;;14.20;89.10;;;;;;5108121;28;19916;-65
2022/07/21 08:09:48;;;;;;;;;;;14.10;89.10;;;;;;5109517;28;20403;-63
2022/07/21 08:12:14;;;;;;;;;;;14.10;89.70;;;;;;5091297;28;20288;-63
2022/07/21 08:14:41;;;;;;;;;;;14.20;89.10;;;;;;5105005;28;20023;-66
2022/07/21 08:17:08;;;;;;;;;;;14.20;89.00;;;;;;5109407;28;20002;-66
2022/07/21 08:19:34;;;;;;;;;;;14.20;89.00;;;;;;5105982;28;19919;-69
2022/07/21 08:22:01;;;;;;;;;;;14.20;89.30;;;;;;5108954;28;19961;-66
2022/07/21 08:24:27;;;;;;;;;;;14.20;88.70;;;;;;5101234;28;19918;-67
2022/07/21 08:26:54;;;;;;;;;;;14.20;89.10;;;;;;5108800;28;19916;-68
2022/07/21 08:29:21;;;;;;;;;;;14.20;89.00;;;;;;5103887;28;19909;-67
2022/07/21 08:31:48;;;;;;;;;;;14.20;89.40;;;;;;5090400;28;20033;-64
2022/07/21 08:34:14;;;;;;;;;;;14.20;89.20;;;;;;5111480;27;19923;-64
2022/07/21 08:36:41;;;;;;;;;;;14.20;89.30;;;;;;5112980;28;19958;-64
2022/07/21 08:39:08;;;;;;;;;;;14.20;89.00;;;;;;5098721;28;19915;-64
2022/07/21 08:41:35;;;;;;;;;;;14.20;88.80;;;;;;5113230;28;19916;-66
2022/07/21 08:44:02;;;;;;;;;;;14.20;87.80;;;;;;5083705;28;19915;-66
2022/07/21 08:46:29;;;;;;;;;;;14.20;86.20;;;;;;5096654;28;19954;-66
2022/07/21 08:48:55;;;;;;;;;;;14.20;85.80;;;;;;5078944;28;19923;-64
2022/07/21 08:51:22;;;;;;;;;;;14.30;85.60;;;;;;5093743;28;19916;-64
2022/07/21 08:53:48;;;;;;;;;;;14.30;85.40;;;;;;5109930;28;19927;-64
2022/07/21 08:56:15;;;;;;;;;;;14.30;85.80;;;;;;5112402;28;19908;-64
2022/07/21 08:58:41;;;;;;;;;;;14.40;86.60;;;;;;5112977;28;19908;-64
2022/07/21 09:01:08;;;;;;;;;;;14.40;87.10;;;;;;5112706;28;20120;-64
2022/07/21 09:03:35;;;;;;;;;;;14.40;87.30;;;;;;5087404;28;19962;-64
2022/07/21 09:06:01;;;;;;;;;;;14.40;87.70;;;;;;5105651;28;19912;-64
2022/07/21 09:08:34;;;;;;;;;;;14.40;86.30;;;;;;5112534;28;20247;-64
2022/07/21 09:11:10;;;;;;;;;;;14.50;85.70;;;;;;5086162;28;19924;-64
2022/07/21 09:13:36;;;;;;;;;;;14.50;85.40;;;;;;5111201;28;19919;-64
2022/07/21 09:16:03;;;;;;;;;;;14.50;84.70;;;;;;5111788;28;20263;-65
2022/07/21 09:18:29;;;;;;;;;;;14.50;83.80;;;;;;5112419;28;19908;-64
2022/07/21 09:20:58;;;;;;;;;;;14.50;82.60;;;;;;5109995;28;20277;-64
2022/07/21 09:23:25;;;;;;;;;;;14.50;82.50;;;;;;5106094;28;20004;-63
2022/07/21 09:25:52;;;;;;;;;;;14.40;82.40;;;;;;5109883;28;19915;-63
2022/07/21 09:28:19;;;;;;;;;;;14.50;82.10;;;;;;5111644;28;19908;-63
2022/07/21 09:30:59;;;;;;;;;;;14.50;82.00;;;;;;5112126;28;20285;-64
2022/07/21 09:33:27;;;;;;;;;;;14.50;82.70;;;;;;5107692;28;19924;-62
2022/07/21 09:35:58;;;;;;;;;;;14.50;83.10;;;;;;5114991;27;19926;-63
2022/07/21 09:38:25;;;;;;;;;;;14.50;85.30;;;;;;5111945;28;19912;-64
2022/07/21 09:40:51;;;;;;;;;;;14.30;86.20;;;;;;5097563;28;20352;-65
2022/07/21 09:43:36;;;;;;;;;;;14.20;86.10;;;;;;5112003;28;20292;-63
2022/07/21 09:46:03;;;;;;;;;;;14.10;86.10;;;;;;5105694;28;19996;-64
2022/07/21 09:48:33;;;;;;;;;;;14.10;85.80;;;;;;5111892;28;19908;-64
2022/07/21 09:51:18;;;;;;;;;;;14.10;85.30;;;;;;5111233;28;19924;-63
2022/07/21 09:53:48;;;;;;;;;;;14.10;84.20;;;;;;5112165;28;20379;-65
2022/07/21 09:56:16;;;;;;;;;;;14.10;84.50;;;;;;5110032;28;19998;-64
2022/07/21 09:58:42;;;;;;;;;;;14.20;83.90;;;;;;5093474;28;20431;-64
2022/07/21 10:01:09;;;;;;;;;;;14.30;82.60;;;;;;5093401;28;19935;-64
2022/07/21 10:03:35;;;;;;;;;;;14.30;83.00;;;;;;5093207;28;20010;-64
2022/07/21 10:06:02;;;;;;;;;;;14.30;81.70;;;;;;5093031;28;19920;-64
2022/07/21 10:08:29;;;;;;;;;;;14.30;82.00;;;;;;5111123;28;19916;-64
2022/07/21 10:10:55;;;;;;;;;;;14.30;80.90;;;;;;5092403;28;19920;-64
2022/07/21 10:13:22;;;;;;;;;;;14.30;82.20;;;;;;5090489;28;20010;-65
2022/07/21 10:15:48;;;;;;;;;;;14.30;80.60;;;;;;5082807;28;19916;-63
2022/07/21 10:18:15;;;;;;;;;;;14.30;79.90;;;;;;5092805;28;19916;-64
2022/07/21 10:20:41;;;;;;;;;;;14.30;80.20;;;;;;5093260;28;19908;-64
2022/07/21 10:23:26;;;;;;;;;;;14.40;81.20;;;;;;5092534;28;19916;-64
2022/07/21 10:25:53;;;;;;;;;;;14.50;81.10;;;;;;5098126;28;19995;-64
2022/07/21 10:28:29;;;;;;;;;;;14.50;81.60;;;;;;5092517;28;19947;-64
2022/07/21 10:30:56;;;;;;;;;;;14.50;81.20;;;;;;5110884;28;19957;-65
2022/07/21 10:33:41;;;;;;;;;;;14.50;82.30;;;;;;5091346;28;19915;-66
2022/07/21 10:36:08;;;;;;;;;;;14.50;82.30;;;;;;5099688;28;19912;-66
2022/07/21 10:38:35;;;;;;;;;;;14.50;82.90;;;;;;5110640;28;19969;-65
2022/07/21 10:41:02;;;;;;;;;;;14.50;82.90;;;;;;5110948;28;19918;-66
2022/07/21 10:43:29;;;;;;;;;;;14.50;82.00;;;;;;5108561;28;19925;-68
2022/07/21 10:45:56;;;;;;;;;;;14.50;81.50;;;;;;5110351;28;19979;-66
2022/07/21 10:48:38;;;;;;;;;;;14.50;81.40;;;;;;5108366;28;19923;-65
2022/07/21 10:51:06;;;;;;;;;;;14.50;80.80;;;;;;5096392;28;21051;-66
2022/07/21 10:53:33;;;;;;;;;;;14.60;80.90;;;;;;5110850;28;20002;-66
2022/07/21 10:56:00;;;;;;;;;;;14.70;81.70;;;;;;5092758;28;19927;-66
2022/07/21 10:58:27;;;;;;;;;;;14.70;81.70;;;;;;5107053;28;19916;-66
2022/07/21 11:00:56;;;;;;;;;;;14.70;80.90;;;;;;5105476;27;20400;-64
2022/07/21 11:03:30;;;;;;;;;;;14.70;81.20;;;;;;5122047;27;19919;-65
2022/07/21 11:06:12;;;;;;;;;;;14.70;79.60;;;;;;5125608;27;19911;-66
2022/07/21 11:08:38;;;;;;;;;;;14.80;80.10;;;;;;5120523;27;19943;-65
2022/07/21 11:11:09;;;;;;;;;;;14.90;79.60;;;;;;5120662;27;19911;-65
2022/07/21 11:13:54;;;;;;;;;;;14.90;79.70;;;;;;5124954;27;19915;-66
2022/07/21 11:16:20;;;;;;;;;;;14.80;79.30;;;;;;5114350;27;19912;-66
2022/07/21 11:18:47;;;;;;;;;;;14.80;78.80;;;;;;5118771;27;19916;-65
2022/07/21 11:21:14;;;;;;;;;;;14.80;79.80;;;;;;5118422;27;19937;-65
2022/07/21 11:23:50;;;;;;;;;;;14.80;80.30;;;;;;5129119;27;19969;-64
2022/07/21 11:26:17;;;;;;;;;;;14.80;80.30;;;;;;5116096;27;19912;-66
2022/07/21 11:28:44;;;;;;;;;;;14.80;80.50;;;;;;5110442;28;19912;-66
2022/07/21 11:31:18;;;;;;;;;;;14.70;81.80;;;;;;5109687;27;19979;-67
2022/07/21 11:33:45;;;;;;;;;;;14.70;83.50;;;;;;5110461;27;20296;-65
2022/07/21 11:36:22;;;;;;;;;;;14.50;84.60;;;;;;5102012;28;19908;-66
2022/07/21 11:38:58;;;;;;;;;;;14.30;84.70;;;;;;5095746;28;19916;-66
2022/07/21 11:41:25;;;;;;;;;;;14.20;84.70;;;;;;5111256;28;20297;-65
2022/07/21 11:43:51;;;;;;;;;;;14.20;85.20;;;;;;5112053;28;20369;-65
2022/07/21 11:46:18;;;;;;;;;;;14.20;85.50;;;;;;5112860;28;20002;-66
2022/07/21 11:48:45;;;;;;;;;;;14.20;84.80;;;;;;5094995;28;20504;-66
2022/07/21 11:51:11;;;;;;;;;;;14.20;85.00;;;;;;5095018;28;19978;-67
2022/07/21 11:53:43;;;;;;;;;;;14.20;85.30;;;;;;5108322;28;19919;-66
2022/07/21 11:56:13;;;;;;;;;;;14.20;85.20;;;;;;5109756;28;20337;-68
2022/07/21 11:58:40;;;;;;;;;;;14.30;84.50;;;;;;5084068;28;19912;-66
2022/07/21 12:01:07;;;;;;;;;;;14.30;84.10;;;;;;5097795;27;20074;-67
2022/07/21 12:03:34;;;;;;;;;;;14.30;84.20;;;;;;5103884;27;19941;-66
2022/07/21 12:06:01;;;;;;;;;;;14.30;84.00;;;;;;5109537;27;19911;-67
2022/07/21 12:08:28;;;;;;;;;;;14.30;84.10;;;;;;5104298;27;19916;-67
2022/07/21 12:11:07;;;;;;;;;;;14.30;83.10;;;;;;5109906;27;19922;-66
2022/07/21 12:13:55;;;;;;;;;;;14.30;82.50;;;;;;5115143;27;19973;-65
2022/07/21 12:16:21;;;;;;;;;;;14.30;80.90;;;;;;5113485;28;19918;-67
2022/07/21 12:18:48;;;;;;;;;;;14.30;80.90;;;;;;5095083;28;19938;-65
2022/07/21 12:30:09;;;;;;;;;;;14.30;78.70;;;;;;5093632;28;20014;-66
2022/07/21 12:32:40;;;;;;;;;;;14.30;77.60;;;;;;5113836;27;19981;-66
2022/07/21 12:35:08;;;;;;;;;;;14.30;77.40;;;;;;5111873;28;20255;-67
2022/07/21 12:37:53;;;;;;;;;;;14.30;77.20;;;;;;5094505;28;20007;-65
2022/07/21 12:40:20;;;;;;;;;;;14.30;76.60;;;;;;5110362;28;19934;-66
2022/07/21 12:42:47;;;;;;;;;;;14.30;76.70;;;;;;5116547;27;19912;-65
2022/07/21 12:45:17;;;;;;;;;;;14.30;75.80;;;;;;5117534;27;19911;-70
2022/07/21 12:47:44;;;;;;;;;;;14.40;76.30;;;;;;5115627;27;20006;-66
2022/07/21 12:50:14;;;;;;;;;;;14.50;75.80;;;;;;5090714;28;19909;-68
2022/07/21 12:52:40;;;;;;;;;;;14.50;76.80;;;;;;5111217;28;20404;-67
2022/07/21 12:55:07;;;;;;;;;;;14.50;77.50;;;;;;5115750;28;19916;-67
2022/07/21 12:57:34;;;;;;;;;;;14.40;79.20;;;;;;5115501;28;19915;-67
2022/07/21 13:00:00;;;;;;;;;;;14.50;81.70;;;;;;5112545;28;19912;-67
2022/07/21 13:02:29;;;;;;;;;;;14.50;84.00;;;;;;5107174;28;19977;-67
2022/07/21 13:04:56;;;;;;;;;;;14.20;85.60;;;;;;5114587;28;19915;-67
2022/07/21 13:07:22;;;;;;;;;;;13.90;86.90;;;;;;5115558;28;19995;-67
2022/07/21 13:09:49;;;;;;;;;;;13.50;88.30;;;;;;5112622;28;19923;-67
2022/07/21 13:12:15;;;;;;;;;;;13.40;89.90;;;;;;5115146;28;20250;-67
2022/07/21 13:14:42;;;;;;;;;;;13.30;90.20;;;;;;5112409;28;20384;-67
2022/07/21 13:17:09;;;;;;;;;;;13.20;90.20;;;;;;5115554;28;19919;-67
2022/07/21 13:19:36;;;;;;;;;;;13.20;90.60;;;;;;5115175;28;19908;-67
2022/07/21 13:22:03;;;;;;;;;;;13.10;90.80;;;;;;5112197;28;19928;-67
2022/07/21 13:24:29;;;;;;;;;;;13.10;91.30;;;;;;5106204;28;20027;-67
2022/07/21 13:26:56;;;;;;;;;;;13.10;91.70;;;;;;5114814;28;19959;-67
2022/07/21 13:29:22;;;;;;;;;;;13.10;91.80;;;;;;5106715;28;19977;-67
2022/07/21 13:31:49;;;;;;;;;;;13.00;91.80;;;;;;5093094;28;20442;-67
2022/07/21 13:34:16;;;;;;;;;;;13.00;92.40;;;;;;5094040;28;20325;-67
2022/07/21 13:36:42;;;;;;;;;;;12.90;92.70;;;;;;5093541;28;19916;-67
2022/07/21 13:39:09;;;;;;;;;;;12.90;93.00;;;;;;5079949;28;19919;-67
2022/07/21 13:41:37;;;;;;;;;;;12.90;93.60;;;;;;5094018;28;21020;-67
2022/07/21 13:44:04;;;;;;;;;;;12.90;93.50;;;;;;5076689;28;20007;-67
2022/07/21 13:46:31;;;;;;;;;;;12.90;93.90;;;;;;5094206;28;19908;-67
2022/07/21 13:48:57;;;;;;;;;;;12.90;93.60;;;;;;5094056;28;19965;-67
2022/07/21 13:51:24;;;;;;;;;;;12.80;93.50;;;;;;5092647;28;19912;-68
2022/07/21 13:53:51;;;;;;;;;;;12.90;93.80;;;;;;5094007;28;20376;-67
2022/07/21 13:56:17;;;;;;;;;;;12.80;93.60;;;;;;5094181;28;19924;-67
2022/07/21 13:58:44;;;;;;;;;;;12.80;93.70;;;;;;5093690;28;20320;-67
2022/07/21 14:01:11;;;;;;;;;;;12.80;93.40;;;;;;5092790;28;19912;-67
2022/07/21 14:03:38;;;;;;;;;;;12.80;93.40;;;;;;5094085;28;19958;-67
2022/07/21 14:06:04;;;;;;;;;;;12.80;93.10;;;;;;5093987;28;19908;-68
2022/07/21 14:08:31;;;;;;;;;;;12.80;92.90;;;;;;5093956;28;19915;-68
2022/07/21 14:10:58;;;;;;;;;;;12.80;92.60;;;;;;5093550;28;20013;-67
2022/07/21 14:13:24;;;;;;;;;;;12.90;91.30;;;;;;5093441;28;19912;-67
2022/07/21 14:15:51;;;;;;;;;;;13.00;91.30;;;;;;5093872;28;19919;-67
2022/07/21 14:18:17;;;;;;;;;;;13.00;91.80;;;;;;5093630;28;19986;-67
2022/07/21 14:20:44;;;;;;;;;;;12.90;92.10;;;;;;5093177;28;19912;-67
2022/07/21 14:23:10;;;;;;;;;;;12.80;92.50;;;;;;5092954;28;20003;-68
2022/07/21 14:25:37;;;;;;;;;;;12.80;92.80;;;;;;5092999;28;19912;-67
2022/07/21 14:28:04;;;;;;;;;;;12.70;93.00;;;;;;5093287;28;19947;-67
2022/07/21 14:30:30;;;;;;;;;;;12.80;93.40;;;;;;5104340;28;19919;-67
2022/07/21 14:32:57;;;;;;;;;;;12.70;93.60;;;;;;5103874;28;19968;-67
2022/07/21 14:35:25;;;;;;;;;;;12.80;93.80;;;;;;5113371;28;20369;-67
2022/07/21 14:37:51;;;;;;;;;;;12.70;93.80;;;;;;5113656;28;20001;-67
2022/07/21 14:40:18;;;;;;;;;;;12.70;93.90;;;;;;5107475;28;19962;-67
2022/07/21 14:42:46;;;;;;;;;;;12.70;93.90;;;;;;5113405;28;19908;-68
2022/07/21 14:45:13;;;;;;;;;;;12.70;94.00;;;;;;5111843;28;19907;-67
2022/07/21 14:47:40;;;;;;;;;;;12.70;94.20;;;;;;5113131;28;19916;-67
2022/07/21 14:50:06;;;;;;;;;;;12.70;94.10;;;;;;5113364;28;19916;-67
2022/07/21 14:52:33;;;;;;;;;;;12.80;94.10;;;;;;5111871;28;20354;-67
2022/07/21 14:54:59;;;;;;;;;;;12.80;93.90;;;;;;5113273;28;20365;-68
2022/07/21 14:57:27;;;;;;;;;;;12.80;93.80;;;;;;5112775;28;20274;-67
2022/07/21 14:59:54;;;;;;;;;;;12.90;93.80;;;;;;5112638;28;20365;-67
2022/07/21 15:02:20;;;;;;;;;;;12.90;93.70;;;;;;5104590;28;19918;-67
2022/07/21 15:04:47;;;;;;;;;;;13.00;93.60;;;;;;5113104;28;19918;-67
2022/07/21 15:07:13;;;;;;;;;;;13.00;93.00;;;;;;5112430;28;19911;-68
2022/07/21 15:09:40;;;;;;;;;;;13.00;90.40;;;;;;5112954;28;19916;-68
2022/07/21 15:12:07;;;;;;;;;;;13.10;88.60;;;;;;5112983;28;20301;-67
2022/07/21 15:14:33;;;;;;;;;;;13.20;87.50;;;;;;5107576;28;19923;-67
2022/07/21 15:17:00;;;;;;;;;;;13.30;86.50;;;;;;5112982;28;19911;-67
2022/07/21 15:19:26;;;;;;;;;;;13.30;87.00;;;;;;5112678;28;19912;-67
2022/07/21 15:21:53;;;;;;;;;;;13.30;87.10;;;;;;5112677;28;20307;-68
2022/07/21 15:24:20;;;;;;;;;;;13.30;85.80;;;;;;5106617;28;19998;-68
2022/07/21 15:26:46;;;;;;;;;;;13.30;85.10;;;;;;5112890;28;19911;-67
2022/07/21 15:29:13;;;;;;;;;;;13.40;84.70;;;;;;5094958;28;19920;-68
2022/07/21 15:31:39;;;;;;;;;;;13.40;85.10;;;;;;5112112;28;19965;-67
2022/07/21 15:34:06;;;;;;;;;;;13.40;85.10;;;;;;5086417;28;19920;-67
2022/07/21 15:36:33;;;;;;;;;;;13.50;84.60;;;;;;5112948;28;20255;-67
2022/07/21 15:38:59;;;;;;;;;;;13.50;85.70;;;;;;5112663;28;19907;-68
2022/07/21 15:41:26;;;;;;;;;;;13.60;86.80;;;;;;5112643;28;20282;-67
2022/07/21 15:43:53;;;;;;;;;;;13.70;87.60;;;;;;5085750;28;20004;-67
2022/07/21 15:46:20;;;;;;;;;;;13.70;87.60;;;;;;5112435;28;19920;-67
2022/07/21 15:48:47;;;;;;;;;;;13.70;88.10;;;;;;5094537;28;19914;-68
2022/07/21 15:51:13;;;;;;;;;;;13.70;88.70;;;;;;5093619;28;19908;-67
2022/07/21 15:53:40;;;;;;;;;;;13.70;87.90;;;;;;5111608;28;19921;-67
2022/07/21 15:56:07;;;;;;;;;;;13.70;87.30;;;;;;5112203;28;19918;-68
2022/07/21 15:58:33;;;;;;;;;;;13.70;87.60;;;;;;5112225;28;20392;-68
2022/07/21 16:01:00;;;;;;;;;;;13.70;87.00;;;;;;5111001;28;19977;-67
2022/07/21 16:03:26;;;;;;;;;;;13.70;86.70;;;;;;5110951;28;20002;-67
2022/07/21 16:05:53;;;;;;;;;;;13.70;87.00;;;;;;5112484;28;19914;-67
2022/07/21 16:08:20;;;;;;;;;;;13.60;86.20;;;;;;5094224;28;20377;-68
2022/07/21 16:10:46;;;;;;;;;;;13.60;85.60;;;;;;5112272;28;19969;-67
2022/07/21 16:13:13;;;;;;;;;;;13.70;85.40;;;;;;5111112;28;19961;-67
2022/07/21 16:15:39;;;;;;;;;;;13.70;85.10;;;;;;5093814;28;19920;-67
2022/07/21 16:18:06;;;;;;;;;;;13.70;85.60;;;;;;5112427;28;19907;-67
2022/07/21 16:20:33;;;;;;;;;;;13.70;86.00;;;;;;5112249;28;19958;-67
2022/07/21 16:22:59;;;;;;;;;;;13.70;85.90;;;;;;5111955;28;19960;-67
2022/07/21 16:25:26;;;;;;;;;;;13.70;85.50;;;;;;5111239;28;19950;-67
2022/07/21 16:27:52;;;;;;;;;;;13.80;85.50;;;;;;5111938;28;19915;-67
2022/07/21 16:30:19;;;;;;;;;;;13.70;86.00;;;;;;5112075;28;19971;-67
2022/07/21 16:32:46;;;;;;;;;;;13.70;85.90;;;;;;5112213;28;20270;-67
2022/07/21 16:35:15;;;;;;;;;;;13.70;86.00;;;;;;5109397;28;19930;-67
2022/07/21 16:37:42;;;;;;;;;;;13.70;86.40;;;;;;5109304;28;19911;-67
2022/07/21 16:40:09;;;;;;;;;;;13.70;86.70;;;;;;5099306;28;19923;-67
2022/07/21 16:42:36;;;;;;;;;;;13.60;86.80;;;;;;5094069;28;19962;-67
2022/07/21 16:45:02;;;;;;;;;;;13.60;87.10;;;;;;5112955;28;20434;-67
2022/07/21 16:47:29;;;;;;;;;;;13.70;87.50;;;;;;5115857;28;19911;-67
2022/07/21 16:49:55;;;;;;;;;;;13.60;87.70;;;;;;5106232;28;19919;-67
2022/07/21 16:52:22;;;;;;;;;;;13.60;87.80;;;;;;5115983;28;19957;-67
2022/07/21 16:54:49;;;;;;;;;;;13.60;87.90;;;;;;5115595;28;19920;-67
2022/07/21 16:57:15;;;;;;;;;;;13.70;88.10;;;;;;5115064;28;19915;-67
2022/07/21 16:59:42;;;;;;;;;;;13.70;88.90;;;;;;5112511;28;19908;-67
2022/07/21 17:02:08;;;;;;;;;;;13.60;89.70;;;;;;5115581;28;20273;-68
2022/07/21 17:04:35;;;;;;;;;;;13.50;90.40;;;;;;5115390;28;19960;-68
2022/07/21 17:07:01;;;;;;;;;;;13.50;90.90;;;;;;5092074;28;19912;-68
2022/07/21 17:09:28;;;;;;;;;;;13.40;91.20;;;;;;5110334;28;20438;-67
2022/07/21 17:11:55;;;;;;;;;;;13.30;91.40;;;;;;5115077;28;19915;-68
2022/07/21 17:14:21;;;;;;;;;;;13.30;91.70;;;;;;5097385;28;19954;-67
2022/07/21 17:16:48;;;;;;;;;;;13.30;91.20;;;;;;5113517;28;19912;-68
2022/07/21 17:19:14;;;;;;;;;;;13.30;91.20;;;;;;5108926;28;20005;-68
2022/07/21 17:21:41;;;;;;;;;;;13.30;90.20;;;;;;5115142;28;19912;-68
2022/07/21 17:24:07;;;;;;;;;;;13.30;90.80;;;;;;5115487;28;19952;-68
2022/07/21 17:26:34;;;;;;;;;;;13.40;91.40;;;;;;5115045;28;20315;-68
2022/07/21 17:29:01;;;;;;;;;;;13.40;91.80;;;;;;5106727;28;19911;-68
2022/07/21 17:31:27;;;;;;;;;;;13.30;91.10;;;;;;5115148;28;19912;-68
2022/07/21 17:33:54;;;;;;;;;;;13.30;91.50;;;;;;5112116;28;19912;-68
2022/07/21 17:36:20;;;;;;;;;;;13.20;91.70;;;;;;5087614;28;19916;-68
2022/07/21 17:38:47;;;;;;;;;;;13.20;92.00;;;;;;5105147;28;20393;-69
2022/07/21 17:41:13;;;;;;;;;;;13.10;91.60;;;;;;5114790;28;19911;-68
2022/07/21 17:43:40;;;;;;;;;;;13.20;91.30;;;;;;5118387;27;20272;-67
2022/07/21 17:46:06;;;;;;;;;;;13.10;91.40;;;;;;5134717;27;19907;-67
2022/07/21 17:48:33;;;;;;;;;;;13.10;91.10;;;;;;5114110;27;20015;-68
2022/07/21 17:51:00;;;;;;;;;;;13.10;90.90;;;;;;5133396;27;19915;-68
2022/07/21 17:53:26;;;;;;;;;;;13.10;90.40;;;;;;5120651;27;19911;-67
2022/07/21 17:55:53;;;;;;;;;;;13.20;87.70;;;;;;5135409;27;20404;-67
2022/07/21 18:01:04;;;;;;;;;;;13.30;88.10;;;;;;5108817;28;20387;-68
2022/07/21 18:03:31;;;;;;;;;;;13.30;87.90;;;;;;5114622;28;19908;-67
2022/07/21 18:05:57;;;;;;;;;;;13.30;87.30;;;;;;5096095;28;19908;-68
2022/07/21 18:08:24;;;;;;;;;;;13.30;87.50;;;;;;5105130;28;19959;-68
2022/07/21 18:10:50;;;;;;;;;;;13.40;87.30;;;;;;5108740;28;20304;-68
2022/07/21 18:13:17;;;;;;;;;;;13.40;87.60;;;;;;5114234;28;19912;-68
2022/07/21 18:15:43;;;;;;;;;;;13.40;86.40;;;;;;5114105;28;20003;-68
2022/07/21 18:18:10;;;;;;;;;;;13.40;86.70;;;;;;5111723;28;20000;-68
2022/07/21 18:20:37;;;;;;;;;;;13.50;86.30;;;;;;5113592;28;19908;-68
2022/07/21 18:23:04;;;;;;;;;;;13.50;87.00;;;;;;5113006;28;19919;-68
2022/07/21 18:25:31;;;;;;;;;;;13.50;87.60;;;;;;5114288;28;19916;-68
2022/07/21 18:27:57;;;;;;;;;;;13.50;87.20;;;;;;5114109;28;19986;-68
2022/07/21 18:30:24;;;;;;;;;;;13.50;87.70;;;;;;5111579;28;19920;-67
2022/07/21 18:32:50;;;;;;;;;;;13.50;88.10;;;;;;5097923;28;19923;-68
2022/07/21 18:35:17;;;;;;;;;;;13.50;88.20;;;;;;5108274;28;19920;-67
2022/07/21 18:37:44;;;;;;;;;;;13.50;88.50;;;;;;5113730;28;19908;-67
2022/07/21 18:40:10;;;;;;;;;;;13.50;88.60;;;;;;5113552;28;20375;-67
2022/07/21 18:42:37;;;;;;;;;;;13.40;88.60;;;;;;5093767;28;20002;-67
2022/07/21 18:45:04;;;;;;;;;;;13.50;89.10;;;;;;5113324;28;19918;-67
2022/07/21 18:47:30;;;;;;;;;;;13.40;89.30;;;;;;5113613;28;19914;-67
2022/07/21 18:49:57;;;;;;;;;;;13.40;89.10;;;;;;5110784;28;19912;-67
2022/07/21 18:52:24;;;;;;;;;;;13.30;89.40;;;;;;5109489;27;19919;-67
2022/07/21 18:54:50;;;;;;;;;;;13.30;89.80;;;;;;5100196;27;20407;-67
2022/07/21 18:57:17;;;;;;;;;;;13.40;89.70;;;;;;5109534;27;19918;-67
2022/07/21 18:59:43;;;;;;;;;;;13.40;89.80;;;;;;5096385;27;19908;-65
2022/07/21 19:02:10;;;;;;;;;;;13.40;90.20;;;;;;5109638;27;20385;-67
2022/07/21 19:04:37;;;;;;;;;;;13.50;90.40;;;;;;5108368;28;19961;-67
2022/07/21 19:07:04;;;;;;;;;;;13.50;90.40;;;;;;5097205;28;19914;-68
2022/07/21 19:09:30;;;;;;;;;;;13.60;90.10;;;;;;5113008;27;19918;-67
2022/07/21 19:11:57;;;;;;;;;;;13.60;90.10;;;;;;5111656;27;19920;-67
2022/07/21 19:14:24;;;;;;;;;;;13.60;89.70;;;;;;5115209;27;19915;-67
2022/07/21 19:16:51;;;;;;;;;;;13.60;89.50;;;;;;5094704;28;19916;-67
2022/07/21 19:19:18;;;;;;;;;;;13.70;89.60;;;;;;5092889;28;19965;-67
2022/07/21 19:21:44;;;;;;;;;;;13.70;90.00;;;;;;5112375;28;19918;-67
2022/07/21 19:24:11;;;;;;;;;;;13.70;90.80;;;;;;5112794;28;19908;-68
2022/07/21 19:26:37;;;;;;;;;;;13.70;91.60;;;;;;5112924;28;19908;-70
2022/07/21 19:29:04;;;;;;;;;;;13.60;92.90;;;;;;5094476;28;19919;-70
2022/07/21 19:31:31;;;;;;;;;;;13.50;93.70;;;;;;5111785;28;20068;-70
2022/07/21 19:33:57;;;;;;;;;;;13.30;94.50;;;;;;5112206;28;19958;-69
2022/07/21 19:36:24;;;;;;;;;;;13.20;94.80;;;;;;5112801;28;19912;-69
2022/07/21 19:38:50;;;;;;;;;;;13.20;95.00;;;;;;5113078;28;19919;-69
2022/07/21 19:41:17;;;;;;;;;;;13.20;95.40;;;;;;5094128;28;19908;-69
2022/07/21 19:43:45;;;;;;;;;;;13.10;95.50;;;;;;5112775;28;19915;-69
2022/07/21 19:46:12;;;;;;;;;;;13.10;95.60;;;;;;5094755;28;19907;-69
2022/07/21 19:48:39;;;;;;;;;;;13.00;95.60;;;;;;5112655;28;20376;-68
2022/07/21 19:51:05;;;;;;;;;;;13.00;95.60;;;;;;5112450;28;19947;-69
2022/07/21 19:53:34;;;;;;;;;;;13.00;95.60;;;;;;5112344;28;20373;-69
2022/07/21 19:56:01;;;;;;;;;;;13.00;95.70;;;;;;5094934;28;19920;-69
2022/07/21 19:58:28;;;;;;;;;;;12.90;95.80;;;;;;5112931;28;19938;-69
2022/07/21 20:00:55;;;;;;;;;;;12.90;95.80;;;;;;5112691;28;19915;-69
2022/07/21 20:03:21;;;;;;;;;;;13.00;95.90;;;;;;5112497;28;19943;-69
2022/07/21 20:05:48;;;;;;;;;;;13.00;96.00;;;;;;5112176;28;20377;-69
2022/07/21 20:08:14;;;;;;;;;;;13.00;95.90;;;;;;5112472;28;19915;-69
2022/07/21 20:58:53;;;;;;;;;;;13.20;93.60;;;;;;5098897;28;20100;-67
2022/07/21 21:01:20;;;;;;;;;;;13.20;93.60;;;;;;5108485;28;19916;-68
2022/07/21 21:03:46;;;;;;;;;;;13.30;93.70;;;;;;5115192;28;19903;-69
2022/07/21 21:06:13;;;;;;;;;;;13.30;93.80;;;;;;5115406;28;19908;-67
2022/07/21 21:08:40;;;;;;;;;;;13.30;94.00;;;;;;5115680;28;19912;-68
2022/07/21 21:11:06;;;;;;;;;;;13.30;94.00;;;;;;5115162;28;19908;-68
2022/07/21 21:13:33;;;;;;;;;;;13.30;94.00;;;;;;5115366;28;19911;-68
2022/07/21 21:16:00;;;;;;;;;;;13.40;94.10;;;;;;5115165;28;19912;-67
2022/07/21 21:18:26;;;;;;;;;;;13.40;94.20;;;;;;5114834;28;19954;-67
2022/07/21 21:20:53;;;;;;;;;;;13.40;94.20;;;;;;5115077;28;19918;-67
2022/07/21 21:23:19;;;;;;;;;;;13.40;94.10;;;;;;5115014;28;20342;-67
2022/07/21 21:25:46;;;;;;;;;;;13.50;93.60;;;;;;5114902;28;19947;-67
2022/07/21 21:28:13;;;;;;;;;;;13.50;93.80;;;;;;5114856;28;19908;-66
2022/07/21 21:30:39;;;;;;;;;;;13.50;93.80;;;;;;5114949;28;20019;-67
2022/07/21 21:33:06;;;;;;;;;;;13.50;93.60;;;;;;5113608;28;19912;-65
2022/07/21 21:35:32;;;;;;;;;;;13.50;92.40;;;;;;5114791;28;19916;-65
2022/07/21 21:37:59;;;;;;;;;;;13.60;92.50;;;;;;5114686;28;19926;-65
2022/07/21 21:40:25;;;;;;;;;;;13.60;92.90;;;;;;5114390;28;19915;-66
2022/07/21 21:42:52;;;;;;;;;;;13.60;92.80;;;;;;5114573;28;19951;-66
2022/07/21 21:45:20;;;;;;;;;;;13.70;93.10;;;;;;5096315;28;19915;-65
2022/07/21 21:47:46;;;;;;;;;;;13.70;92.10;;;;;;5114672;28;19908;-65
2022/07/21 21:50:13;;;;;;;;;;;13.70;92.50;;;;;;5114457;28;19908;-65
2022/07/21 21:52:39;;;;;;;;;;;13.70;92.60;;;;;;5114631;28;19915;-65
2022/07/21 21:55:06;;;;;;;;;;;13.80;92.70;;;;;;5096043;28;20266;-65
2022/07/21 21:57:33;;;;;;;;;;;13.80;92.80;;;;;;5114201;28;19915;-65
2022/07/21 21:59:59;;;;;;;;;;;13.90;93.00;;;;;;5113704;28;19920;-65
2022/07/21 22:02:26;;;;;;;;;;;13.90;92.70;;;;;;5114278;28;19998;-65
2022/07/21 22:04:52;;;;;;;;;;;13.90;92.40;;;;;;5114090;28;19953;-66